Time;durP1;ratioP1;P1;durP2;ratioP2;P2;SDS_P1;SDS_P2;PMS_P1;PMS_P2;Temp;Humidity;BMP_temperature;BMP_pressure;BME280_temperature;BME280_humidity;BME280_pressure;Samples;Min_cycle;Max_cycle;Signal;HPM_P1;HPM_P2
2022/03/14 00:01:40;;;;;;;14.43;5.55;;;;;;;-141.50;100.00;63355.56;5031656;28;20042;-80
2022/03/14 00:04:06;;;;;;;12.82;6.00;;;;;;;-141.50;100.00;63355.56;5031570;28;20512;-78
2022/03/14 00:06:35;;;;;;;11.88;5.70;;;;;;;-141.50;100.00;63355.56;5030580;28;20045;-75
2022/03/14 00:09:06;;;;;;;17.95;6.65;;;;;;;-141.50;100.00;63355.56;5037266;28;20051;-77
2022/03/14 00:11:36;;;;;;;15.05;6.30;;;;;;;-141.50;100.00;63355.56;5036862;28;20046;-78
2022/03/14 00:14:08;;;;;;;14.70;6.18;;;;;;;-141.50;100.00;63355.56;5041680;28;20063;-76
2022/03/14 00:16:39;;;;;;;12.85;5.88;;;;;;;-141.50;100.00;63355.56;5040773;28;20050;-78
2022/03/14 00:19:07;;;;;;;14.85;6.00;;;;;;;-141.50;100.00;63355.56;5052784;28;20534;-79
2022/03/14 00:21:41;;;;;;;21.33;6.13;;;;;;;-141.50;100.00;63355.56;5047304;28;20529;-77
2022/03/14 00:24:14;;;;;;;13.60;6.17;;;;;;;-141.50;100.00;63355.56;5041571;28;20053;-77
2022/03/14 00:26:40;;;;;;;14.68;5.80;;;;;;;-141.50;100.00;63355.56;5031574;28;20812;-79
2022/03/14 00:29:08;;;;;;;15.30;6.13;;;;;;;-141.50;100.00;63355.56;5031998;28;20476;-75
2022/03/14 00:31:35;;;;;;;17.23;6.18;;;;;;;-141.50;100.00;63355.56;5031678;28;20494;-79
2022/03/14 00:34:02;;;;;;;14.63;5.97;;;;;;;-141.50;100.00;63355.56;5032117;28;20049;-76
2022/03/14 00:36:29;;;;;;;13.18;6.03;;;;;;;-141.50;100.00;63355.56;5029929;28;20088;-78
2022/03/14 00:38:55;;;;;;;17.55;6.03;;;;;;;-141.50;100.00;63355.56;5031124;28;20571;-77
2022/03/14 00:41:22;;;;;;;10.68;5.95;;;;;;;-141.50;100.00;63355.56;5031868;28;20054;-78
2022/03/14 00:43:49;;;;;;;12.95;6.35;;;;;;;-141.50;100.00;63355.56;5031557;28;20148;-79
2022/03/14 00:46:17;;;;;;;12.32;5.78;;;;;;;-141.50;100.00;63355.56;5031453;28;20049;-78
2022/03/14 00:48:47;;;;;;;12.25;5.80;;;;;;;-141.50;100.00;63355.56;5031396;28;20053;-78
2022/03/14 00:51:14;;;;;;;16.23;6.07;;;;;;;-141.50;100.00;63355.56;5031175;28;20068;-78
2022/03/14 00:53:41;;;;;;;15.82;5.90;;;;;;;-141.50;100.00;63355.56;5031199;28;20053;-78
2022/03/14 00:56:08;;;;;;;12.57;5.97;;;;;;;-141.50;100.00;63355.56;5030575;28;20111;-79
2022/03/14 00:58:34;;;;;;;12.23;6.00;;;;;;;-141.50;100.00;63355.56;5031007;28;20594;-77
2022/03/14 01:01:02;;;;;;;10.68;5.57;;;;;;;-141.50;100.00;63355.56;5030259;28;20050;-77
2022/03/14 01:03:29;;;;;;;12.20;5.55;;;;;;;-141.50;100.00;63355.56;5031445;28;20469;-77
2022/03/14 01:05:56;;;;;;;17.98;6.43;;;;;;;-141.50;100.00;63355.56;5029970;28;20072;-79
2022/03/14 01:08:22;;;;;;;16.23;6.30;;;;;;;-141.50;100.00;63355.56;5030655;28;20107;-76
2022/03/14 01:10:49;;;;;;;12.45;5.68;;;;;;;-141.50;100.00;63355.56;5030531;28;20041;-77
2022/03/14 01:13:16;;;;;;;14.95;5.93;;;;;;;-141.50;100.00;63355.56;5029860;28;20695;-76
2022/03/14 01:15:43;;;;;;;12.70;6.13;;;;;;;-141.50;100.00;63355.56;5032555;28;20045;-76
2022/03/14 01:18:10;;;;;;;15.85;6.53;;;;;;;-141.50;100.00;63355.56;5050022;28;20060;-82
2022/03/14 01:20:36;;;;;;;12.50;5.65;;;;;;;-141.50;100.00;63355.56;5057348;28;20033;-81
2022/03/14 01:23:03;;;;;;;14.52;6.30;;;;;;;-141.50;100.00;63355.56;5057777;28;20025;-82
2022/03/14 01:25:29;;;;;;;14.15;6.13;;;;;;;-141.50;100.00;63355.56;5055409;28;20440;-77
2022/03/14 01:27:56;;;;;;;12.93;5.65;;;;;;;-141.50;100.00;63355.56;5036670;28;20693;-76
2022/03/14 01:30:23;;;;;;;13.98;6.07;;;;;;;-141.50;100.00;63355.56;5034238;28;20482;-79
2022/03/14 01:32:50;;;;;;;16.40;6.75;;;;;;;-141.50;100.00;63355.56;5035284;28;20485;-75
2022/03/14 01:35:19;;;;;;;13.98;6.07;;;;;;;-141.50;100.00;63355.56;5041125;28;20056;-79
2022/03/14 01:37:51;;;;;;;12.82;5.85;;;;;;;-141.50;100.00;63355.56;5032135;28;20057;-78
2022/03/14 01:40:18;;;;;;;15.13;5.88;;;;;;;-141.50;100.00;63355.56;5034142;28;20058;-78
2022/03/14 01:42:45;;;;;;;15.90;6.18;;;;;;;-141.50;100.00;63355.56;5032354;28;20115;-79
2022/03/14 01:45:13;;;;;;;20.80;6.35;;;;;;;-141.50;100.00;63355.56;5032113;28;20053;-79
2022/03/14 01:47:41;;;;;;;16.83;6.45;;;;;;;-141.50;100.00;63355.56;5030607;28;20714;-79
2022/03/14 01:50:09;;;;;;;12.65;6.15;;;;;;;-141.50;100.00;63355.56;5030683;28;20077;-79
2022/03/14 01:52:36;;;;;;;15.85;6.60;;;;;;;-141.50;100.00;63355.56;5029030;28;20065;-80
2022/03/14 01:55:05;;;;;;;12.32;5.93;;;;;;;-141.50;100.00;63355.56;5030062;28;20045;-78
2022/03/14 01:57:33;;;;;;;10.63;5.57;;;;;;;-141.50;100.00;63355.56;5028152;28;20111;-78
2022/03/14 02:00:00;;;;;;;16.75;6.80;;;;;;;-141.50;100.00;63355.56;5029830;28;20041;-78
2022/03/14 02:02:27;;;;;;;12.10;5.60;;;;;;;-141.50;100.00;63355.56;5029730;28;20088;-78
2022/03/14 02:04:54;;;;;;;13.98;6.40;;;;;;;-141.50;100.00;63355.56;5032063;28;20052;-78
2022/03/14 02:07:21;;;;;;;14.25;6.65;;;;;;;-141.50;100.00;63355.56;5035273;28;20053;-79
2022/03/14 02:09:48;;;;;;;13.93;6.18;;;;;;;-141.50;100.00;63355.56;5037178;28;20041;-78
2022/03/14 02:12:14;;;;;;;12.93;6.00;;;;;;;-141.50;100.00;63355.56;5035315;28;20053;-79
2022/03/14 02:14:41;;;;;;;14.80;6.45;;;;;;;-141.50;100.00;63355.56;5035065;28;20421;-79
2022/03/14 02:17:08;;;;;;;14.23;6.28;;;;;;;-141.50;100.00;63355.56;5034093;28;20069;-78
2022/03/14 02:19:35;;;;;;;17.33;6.90;;;;;;;-141.50;100.00;63355.56;5033501;28;20623;-78
2022/03/14 02:22:03;;;;;;;14.50;5.53;;;;;;;-141.50;100.00;63355.56;5031691;28;20054;-78
2022/03/14 02:24:30;;;;;;;14.90;6.05;;;;;;;-141.50;100.00;63355.56;5059951;28;20571;-77
2022/03/14 02:26:57;;;;;;;15.68;5.90;;;;;;;-141.50;100.00;63355.56;5058641;28;20098;-78
2022/03/14 02:29:26;;;;;;;13.90;6.15;;;;;;;-141.50;100.00;63355.56;5053548;28;20049;-78
2022/03/14 02:31:53;;;;;;;12.70;6.30;;;;;;;-141.50;100.00;63355.56;5050697;28;20072;-78
2022/03/14 02:34:20;;;;;;;14.70;6.50;;;;;;;-141.50;100.00;63355.56;5050525;28;20063;-79
2022/03/14 02:36:46;;;;;;;13.25;6.40;;;;;;;-141.50;100.00;63355.56;5049689;28;20053;-77
2022/03/14 02:39:13;;;;;;;14.45;6.32;;;;;;;-141.50;100.00;63355.56;5049574;28;20045;-77
2022/03/14 02:41:40;;;;;;;15.95;6.22;;;;;;;-141.50;100.00;63355.56;5049804;28;20121;-78
2022/03/14 02:44:08;;;;;;;13.63;6.32;;;;;;;-141.50;100.00;63355.56;5049821;28;20136;-78
2022/03/14 02:46:37;;;;;;;13.23;6.32;;;;;;;-141.50;100.00;63355.56;5049272;28;20049;-78
2022/03/14 02:49:04;;;;;;;12.20;6.38;;;;;;;-141.50;100.00;63355.56;5049756;28;20060;-80
2022/03/14 02:51:34;;;;;;;14.15;6.38;;;;;;;-141.50;100.00;63355.56;5030810;28;20087;-78
2022/03/14 02:54:02;;;;;;;15.50;6.88;;;;;;;-141.50;100.00;63355.56;5050273;28;20049;-77
2022/03/14 02:56:28;;;;;;;15.27;6.35;;;;;;;-141.50;100.00;63355.56;5031890;28;20091;-77
2022/03/14 02:58:55;;;;;;;14.10;6.35;;;;;;;-141.50;100.00;63355.56;5049415;28;20127;-79
2022/03/14 03:01:21;;;;;;;16.63;6.25;;;;;;;-141.50;100.00;63355.56;5054202;28;20053;-77
2022/03/14 03:03:49;;;;;;;17.65;6.55;;;;;;;-141.50;100.00;63355.56;5053993;28;20493;-76
2022/03/14 03:06:22;;;;;;;12.20;5.82;;;;;;;-141.50;100.00;63355.56;5052724;28;20482;-80
2022/03/14 03:08:53;;;;;;;13.48;6.80;;;;;;;-141.50;100.00;63355.56;5053304;28;20045;-76
2022/03/14 03:11:21;;;;;;;20.10;6.35;;;;;;;-141.50;100.00;63355.56;5054109;28;20090;-78
2022/03/14 03:13:49;;;;;;;15.85;6.68;;;;;;;-141.50;100.00;63355.56;5054249;28;20053;-76
2022/03/14 03:16:16;;;;;;;13.70;6.28;;;;;;;-141.50;100.00;63355.56;5054845;28;20080;-77
2022/03/14 03:18:44;;;;;;;13.95;6.80;;;;;;;-141.50;100.00;63355.56;5054836;28;20049;-76
2022/03/14 03:21:11;;;;;;;15.75;7.03;;;;;;;-141.50;100.00;63355.56;5056428;28;20045;-78
2022/03/14 03:23:39;;;;;;;13.70;6.15;;;;;;;-141.50;100.00;63355.56;5045689;28;20488;-77
2022/03/14 03:26:06;;;;;;;14.73;6.72;;;;;;;-141.50;100.00;63355.56;5036529;28;20049;-80
2022/03/14 03:28:37;;;;;;;16.80;6.70;;;;;;;-141.50;100.00;63355.56;5036784;28;20409;-76
2022/03/14 03:31:09;;;;;;;13.55;6.30;;;;;;;-141.50;100.00;63355.56;5032927;28;20041;-78
2022/03/14 03:33:37;;;;;;;16.90;6.45;;;;;;;-141.50;100.00;63355.56;5016660;28;20660;-78
2022/03/14 03:36:05;;;;;;;13.82;6.47;;;;;;;-141.50;100.00;63355.56;5013772;28;20046;-79
2022/03/14 03:38:31;;;;;;;16.90;6.95;;;;;;;-141.50;100.00;63355.56;5013401;28;20316;-78
2022/03/14 03:40:58;;;;;;;20.88;6.88;;;;;;;-141.50;100.00;63355.56;5013315;28;20050;-79
2022/03/14 03:43:24;;;;;;;12.50;5.97;;;;;;;-141.50;100.00;63355.56;5011758;28;20576;-79
2022/03/14 03:45:51;;;;;;;15.85;6.75;;;;;;;-141.50;100.00;63355.56;5013510;28;20053;-79
2022/03/14 03:48:18;;;;;;;15.30;6.38;;;;;;;-141.50;100.00;63355.56;5028167;28;20057;-77
2022/03/14 03:50:45;;;;;;;12.98;6.25;;;;;;;-141.50;100.00;63355.56;5049234;28;20077;-77
2022/03/14 03:53:11;;;;;;;13.63;6.28;;;;;;;-141.50;100.00;63355.56;5052349;28;20053;-78
2022/03/14 03:55:38;;;;;;;16.63;6.15;;;;;;;-141.50;100.00;63355.56;5052473;28;20123;-78
2022/03/14 03:58:05;;;;;;;15.05;6.60;;;;;;;-141.50;100.00;63355.56;5051913;28;20045;-78
2022/03/14 04:00:32;;;;;;;17.90;7.00;;;;;;;-141.50;100.00;63355.56;5051735;28;20721;-78
2022/03/14 04:02:59;;;;;;;15.68;6.88;;;;;;;-141.50;100.00;63355.56;5052403;28;20079;-77
2022/03/14 04:05:27;;;;;;;16.40;6.85;;;;;;;-141.50;100.00;63355.56;5052557;28;20136;-78
2022/03/14 04:07:57;;;;;;;15.48;6.78;;;;;;;-141.50;100.00;63355.56;5050737;28;20444;-78
2022/03/14 04:10:26;;;;;;;13.90;6.65;;;;;;;-141.50;100.00;63355.56;5051663;28;20048;-78
2022/03/14 04:12:53;;;;;;;14.98;6.60;;;;;;;-141.50;100.00;63355.56;5050790;28;20048;-78
2022/03/14 04:15:23;;;;;;;16.45;6.88;;;;;;;-141.50;100.00;63355.56;5052077;28;20076;-79
2022/03/14 04:17:50;;;;;;;14.93;6.50;;;;;;;-141.50;100.00;63355.56;5051597;28;20069;-78
2022/03/14 04:20:16;;;;;;;17.15;7.05;;;;;;;-141.50;100.00;63355.56;5051175;28;20057;-75
2022/03/14 04:22:44;;;;;;;13.63;6.78;;;;;;;-141.50;100.00;63355.56;5043115;28;20049;-77
2022/03/14 04:25:11;;;;;;;16.98;7.50;;;;;;;-141.50;100.00;63355.56;5033279;28;20516;-77
2022/03/14 04:27:38;;;;;;;17.23;6.53;;;;;;;-141.50;100.00;63355.56;5029258;28;20060;-78
2022/03/14 04:30:05;;;;;;;16.67;7.25;;;;;;;-141.50;100.00;63355.56;5030660;28;20510;-77
2022/03/14 04:32:31;;;;;;;16.15;7.05;;;;;;;-141.50;100.00;63355.56;5031603;28;20107;-77
2022/03/14 04:34:58;;;;;;;26.63;7.00;;;;;;;-141.50;100.00;63355.56;5031617;28;20045;-77
2022/03/14 04:37:25;;;;;;;15.32;6.93;;;;;;;-141.50;100.00;63355.56;5030567;28;20073;-77
2022/03/14 04:39:53;;;;;;;17.23;6.80;;;;;;;-141.50;100.00;63355.56;5032590;28;20049;-79
2022/03/14 04:42:21;;;;;;;15.25;6.82;;;;;;;-141.50;100.00;63355.56;5031122;28;20057;-77
2022/03/14 04:44:49;;;;;;;16.80;6.75;;;;;;;-141.50;100.00;63355.56;5033243;28;20056;-79
2022/03/14 04:47:17;;;;;;;15.23;6.82;;;;;;;-141.50;100.00;63355.56;5034255;28;20041;-77
2022/03/14 04:49:43;;;;;;;16.50;7.13;;;;;;;-141.50;100.00;63355.56;5031150;28;20433;-76
2022/03/14 04:52:10;;;;;;;16.00;7.13;;;;;;;-141.50;100.00;63355.56;5041796;28;20056;-82
2022/03/14 04:54:38;;;;;;;18.23;7.65;;;;;;;-141.50;100.00;63355.56;5057652;28;20057;-80
2022/03/14 04:57:05;;;;;;;15.60;7.20;;;;;;;-141.50;100.00;63355.56;5058346;28;20033;-77
2022/03/14 04:59:31;;;;;;;17.75;6.68;;;;;;;-141.50;100.00;63355.56;5049331;28;20046;-77
2022/03/14 05:01:58;;;;;;;14.73;7.10;;;;;;;-141.50;100.00;63355.56;5031404;28;20041;-78
2022/03/14 05:04:24;;;;;;;17.55;8.25;;;;;;;-141.50;100.00;63355.56;5031547;28;20049;-78
2022/03/14 05:06:51;;;;;;;21.73;8.38;;;;;;;-141.50;100.00;63355.56;5030169;28;20088;-79
2022/03/14 05:09:17;;;;;;;21.27;8.40;;;;;;;-141.50;100.00;63355.56;5030453;28;20061;-78
2022/03/14 05:11:44;;;;;;;29.05;10.32;;;;;;;-141.50;100.00;63355.56;5029754;28;20041;-78
2022/03/14 05:14:11;;;;;;;23.33;10.38;;;;;;;-141.50;100.00;63355.56;5029734;28;20069;-77
2022/03/14 05:16:38;;;;;;;24.10;8.70;;;;;;;-141.50;100.00;63355.56;5030638;28;20049;-78
2022/03/14 05:19:04;;;;;;;17.23;7.97;;;;;;;-141.50;100.00;63355.56;5030248;28;20087;-78
2022/03/14 05:21:33;;;;;;;24.52;9.05;;;;;;;-141.50;100.00;63355.56;5028400;28;20816;-80
2022/03/14 05:24:00;;;;;;;17.58;7.93;;;;;;;-141.50;100.00;63355.56;5035143;28;20102;-78
2022/03/14 05:26:27;;;;;;;18.75;7.63;;;;;;;-141.50;100.00;63355.56;5038611;28;20053;-77
2022/03/14 05:28:53;;;;;;;19.23;7.68;;;;;;;-141.50;100.00;63355.56;5035568;28;20081;-78
2022/03/14 05:31:21;;;;;;;19.33;8.40;;;;;;;-141.50;100.00;63355.56;5032249;28;20060;-81
2022/03/14 05:33:48;;;;;;;20.15;8.00;;;;;;;-141.50;100.00;63355.56;5035141;28;20049;-79
2022/03/14 05:36:14;;;;;;;17.75;7.22;;;;;;;-141.50;100.00;63355.56;5013633;28;20054;-79
2022/03/14 05:38:41;;;;;;;17.80;7.85;;;;;;;-141.50;100.00;63355.56;5011420;28;20057;-78
2022/03/14 05:41:07;;;;;;;16.42;7.88;;;;;;;-141.50;100.00;63355.56;5010586;28;20057;-77
2022/03/14 05:43:37;;;;;;;17.17;6.93;;;;;;;-141.50;100.00;63355.56;5010592;28;20046;-80
2022/03/14 05:46:07;;;;;;;16.10;7.32;;;;;;;-141.50;100.00;63355.56;5009771;28;20050;-78
2022/03/14 05:48:35;;;;;;;19.70;8.15;;;;;;;-141.50;100.00;63355.56;5010044;28;20054;-77
2022/03/14 05:51:04;;;;;;;21.02;7.82;;;;;;;-141.50;100.00;63355.56;5023272;28;20045;-78
2022/03/14 05:53:31;;;;;;;20.35;8.45;;;;;;;-141.50;100.00;63355.56;5029256;28;20053;-79
2022/03/14 05:55:58;;;;;;;25.23;8.45;;;;;;;-141.50;100.00;63355.56;5027155;28;20046;-78
2022/03/14 05:58:25;;;;;;;21.63;9.20;;;;;;;-141.50;100.00;63355.56;5027708;28;20127;-80
2022/03/14 06:00:52;;;;;;;26.20;8.85;;;;;;;-141.50;100.00;63355.56;5027851;28;20401;-79
2022/03/14 06:03:22;;;;;;;23.30;8.75;;;;;;;-141.50;100.00;63355.56;5028258;28;20060;-77
2022/03/14 06:05:49;;;;;;;18.92;8.68;;;;;;;-141.50;100.00;63355.56;5028345;28;20050;-78
2022/03/14 06:08:17;;;;;;;27.65;9.38;;;;;;;-141.50;100.00;63355.56;5029939;28;20048;-74
2022/03/14 06:10:45;;;;;;;21.02;8.93;;;;;;;-141.50;100.00;63355.56;5030426;28;20448;-79
2022/03/14 06:13:13;;;;;;;19.13;8.35;;;;;;;-141.50;100.00;63355.56;5027367;28;20077;-77
2022/03/14 06:15:40;;;;;;;19.02;8.13;;;;;;;-141.50;100.00;63355.56;5027263;28;20045;-77
2022/03/14 06:18:08;;;;;;;21.27;7.45;;;;;;;-141.50;100.00;63355.56;5028737;28;20079;-78
2022/03/14 06:20:34;;;;;;;22.40;7.88;;;;;;;-141.50;100.00;63355.56;5011902;28;20682;-78
2022/03/14 06:23:01;;;;;;;22.40;7.72;;;;;;;-141.50;100.00;63355.56;5024108;28;20053;-78
2022/03/14 06:25:28;;;;;;;19.70;8.35;;;;;;;-141.50;100.00;63355.56;5024817;28;20092;-76
2022/03/14 06:27:55;;;;;;;19.63;7.60;;;;;;;-141.50;100.00;63355.56;5023225;28;20498;-78
2022/03/14 06:30:22;;;;;;;22.13;8.73;;;;;;;-141.50;100.00;63355.56;5025079;28;20119;-78
2022/03/14 06:32:49;;;;;;;17.95;7.32;;;;;;;-141.50;100.00;63355.56;5025950;28;20097;-74
2022/03/14 06:35:17;;;;;;;16.30;8.38;;;;;;;-141.50;100.00;63355.56;5022979;28;20460;-79
2022/03/14 06:37:44;;;;;;;18.77;7.95;;;;;;;-141.50;100.00;63355.56;5041059;28;20136;-78
2022/03/14 06:40:14;;;;;;;20.67;8.20;;;;;;;-141.50;100.00;63355.56;5032176;28;20053;-77
2022/03/14 06:42:48;;;;;;;23.50;8.15;;;;;;;-141.50;100.00;63355.56;5027920;28;20056;-76
2022/03/14 06:45:20;;;;;;;18.77;8.30;;;;;;;-141.50;100.00;63355.56;5031248;28;20057;-78
2022/03/14 06:47:47;;;;;;;25.65;8.57;;;;;;;-141.50;100.00;63355.56;5029344;28;20358;-78
2022/03/14 06:50:14;;;;;;;21.65;7.82;;;;;;;-141.50;100.00;63355.56;5029392;28;20057;-78
2022/03/14 06:52:41;;;;;;;20.83;7.90;;;;;;;-141.50;100.00;63355.56;5016016;28;20053;-77
2022/03/14 06:55:10;;;;;;;19.67;8.25;;;;;;;-141.50;100.00;63355.56;5028753;28;20107;-78
2022/03/14 06:57:38;;;;;;;20.67;8.35;;;;;;;-141.50;100.00;63355.56;5023599;28;20092;-77
2022/03/14 07:00:06;;;;;;;20.65;8.38;;;;;;;-141.50;100.00;63355.56;5029986;28;20389;-78
2022/03/14 07:02:34;;;;;;;16.42;7.90;;;;;;;-141.50;100.00;63355.56;5027487;28;20065;-78
2022/03/14 07:05:01;;;;;;;17.88;8.05;;;;;;;-141.50;100.00;63355.56;5032126;28;20045;-78
2022/03/14 07:07:28;;;;;;;18.60;8.05;;;;;;;-141.50;100.00;63355.56;5030209;28;20405;-77
2022/03/14 07:09:55;;;;;;;23.48;8.88;;;;;;;-141.50;100.00;63355.56;5029748;28;20099;-79
2022/03/14 07:12:21;;;;;;;29.48;8.25;;;;;;;-141.50;100.00;63355.56;5031219;28;20055;-77
2022/03/14 07:14:48;;;;;;;19.20;7.60;;;;;;;-141.50;100.00;63355.56;5031671;28;20053;-76
2022/03/14 07:17:17;;;;;;;19.45;8.23;;;;;;;-141.50;100.00;63355.56;5031357;28;20037;-77
2022/03/14 07:19:45;;;;;;;17.30;7.25;;;;;;;-141.50;100.00;63355.56;5054927;28;20775;-78
2022/03/14 07:24:12;;;;;;;;;;;;;;;6.16;39.56;98431.47;5135299;27;20363;-78
2022/03/14 07:26:39;;;;;;;14.07;6.88;;;;;;;6.27;39.31;98439.28;5133091;27;19958;-80
2022/03/14 07:29:06;;;;;;;22.25;8.65;;;;;;;6.34;39.47;98443.59;5115402;27;20102;-79
2022/03/14 07:31:35;;;;;;;18.58;7.68;;;;;;;6.48;39.53;98431.25;5093855;28;20045;-78
2022/03/14 07:34:02;;;;;;;20.13;8.02;;;;;;;6.67;39.55;98441.19;5090977;28;20052;-78
2022/03/14 07:36:29;;;;;;;17.00;8.15;;;;;;;6.77;39.04;98446.56;5107796;28;20628;-78
2022/03/14 07:38:58;;;;;;;21.02;8.30;;;;;;;6.97;39.09;98426.09;5113316;28;20055;-78
2022/03/14 07:41:27;;;;;;;20.33;8.55;;;;;;;7.22;38.65;98451.09;5102471;28;20673;-77
2022/03/14 07:43:53;;;;;;;23.05;9.07;;;;;;;7.41;39.07;98444.00;5093429;28;20073;-78
2022/03/14 07:46:21;;;;;;;21.33;8.15;;;;;;;7.60;38.28;98455.00;5111558;28;20051;-77
2022/03/14 07:48:47;;;;;;;21.92;8.88;;;;;;;7.82;38.26;98452.72;5121031;28;20107;-78
2022/03/14 07:51:17;;;;;;;23.70;9.13;;;;;;;8.16;37.66;98459.03;5120445;28;20066;-77
2022/03/14 07:53:44;;;;;;;16.55;8.70;;;;;;;8.22;37.28;98438.22;5119124;28;20056;-77
2022/03/14 07:56:13;;;;;;;22.30;8.65;;;;;;;8.69;36.13;98448.44;5098886;28;20072;-76
2022/03/14 07:58:41;;;;;;;21.75;8.80;;;;;;;8.97;35.71;98446.84;5094978;28;20088;-77
2022/03/14 08:01:08;;;;;;;20.48;7.88;;;;;;;9.22;34.97;98442.00;5086927;28;20052;-77
2022/03/14 08:03:34;;;;;;;20.95;7.95;;;;;;;9.38;35.20;98435.34;5086845;28;20147;-78
2022/03/14 08:06:04;;;;;;;24.40;9.27;;;;;;;9.55;34.04;98455.72;5086122;28;20056;-77
2022/03/14 08:08:31;;;;;;;15.65;7.90;;;;;;;9.56;34.79;98446.50;5087235;28;20055;-78
2022/03/14 08:11:01;;;;;;;19.35;7.97;;;;;;;9.63;34.43;98449.66;5085075;28;20140;-78
2022/03/14 08:13:32;;;;;;;20.33;8.00;;;;;;;9.86;34.37;98444.22;5083937;28;20446;-77
2022/03/14 08:15:58;;;;;;;19.48;8.07;;;;;;;10.11;34.24;98447.69;5085718;28;20087;-77
2022/03/14 08:18:25;;;;;;;17.30;7.90;;;;;;;10.28;34.33;98448.00;5085517;28;20798;-79
2022/03/14 08:20:57;;;;;;;17.92;7.90;;;;;;;10.34;33.51;98444.16;5085691;28;20484;-78
2022/03/14 08:23:24;;;;;;;22.85;9.60;;;;;;;10.62;33.76;98446.69;5105886;28;20036;-77
2022/03/14 08:25:50;;;;;;;24.02;11.35;;;;;;;10.88;33.66;98451.69;5128003;28;20043;-78
2022/03/14 08:28:17;;;;;;;23.42;10.68;;;;;;;11.04;33.79;98451.13;5128126;28;20056;-79
2022/03/14 08:30:45;;;;;;;16.92;8.23;;;;;;;11.33;33.33;98461.69;5106243;28;20075;-79
2022/03/14 08:33:11;;;;;;;16.08;8.15;;;;;;;11.38;33.07;98455.41;5094563;28;20695;-79
2022/03/14 08:35:38;;;;;;;18.17;7.80;;;;;;;11.41;32.20;98463.72;5085316;28;20117;-78
2022/03/14 08:38:05;;;;;;;17.77;7.90;;;;;;;11.67;32.80;98469.47;5091778;28;20059;-79
2022/03/14 08:40:32;;;;;;;18.20;8.32;;;;;;;12.00;32.70;98467.50;5090834;28;20053;-78
2022/03/14 08:42:58;;;;;;;15.32;7.82;;;;;;;11.96;32.12;98480.84;5081559;28;20048;-79
2022/03/14 08:45:25;;;;;;;15.43;7.97;;;;;;;12.15;32.21;98491.59;5095120;28;20112;-79
2022/03/14 08:47:53;;;;;;;14.77;8.00;;;;;;;11.40;32.05;98485.72;5085245;28;20048;-77
2022/03/14 08:50:20;;;;;;;14.63;7.85;;;;;;;11.59;33.25;98489.16;5090242;28;20052;-81
2022/03/14 08:52:46;;;;;;;13.27;7.78;;;;;;;11.28;31.94;98497.84;5091867;28;20075;-78
2022/03/14 08:55:14;;;;;;;13.00;7.72;;;;;;;12.16;32.82;98487.75;5091907;28;20574;-78
2022/03/14 08:57:42;;;;;;;15.45;7.90;;;;;;;12.09;32.23;98493.59;5085109;28;20060;-78
2022/03/14 09:00:10;;;;;;;18.80;8.35;;;;;;;12.07;31.91;98495.81;5074530;28;20049;-78
2022/03/14 09:02:37;;;;;;;16.17;7.90;;;;;;;12.17;32.20;98501.03;5078810;28;20056;-79
2022/03/14 09:05:04;;;;;;;13.82;7.82;;;;;;;12.29;31.83;98500.50;5073092;28;20048;-79
2022/03/14 09:07:31;;;;;;;15.70;7.70;;;;;;;12.35;31.93;98500.09;5071605;28;20127;-79
2022/03/14 09:10:03;;;;;;;17.17;7.78;;;;;;;11.87;32.44;98517.94;5074555;28;20083;-79
2022/03/14 09:12:32;;;;;;;16.52;7.90;;;;;;;11.32;32.35;98519.75;5068388;28;20547;-78
2022/03/14 09:15:01;;;;;;;15.95;7.97;;;;;;;11.34;32.65;98522.97;5070025;28;20114;-78
2022/03/14 09:17:28;;;;;;;17.60;7.32;;;;;;;11.52;33.12;98543.78;5072465;28;20057;-79
2022/03/14 09:19:55;;;;;;;14.90;7.72;;;;;;;11.42;33.39;98530.41;5072980;28;20067;-78
2022/03/14 09:22:22;;;;;;;17.27;8.10;;;;;;;11.37;33.66;98532.41;5078690;28;20093;-78
2022/03/14 09:24:49;;;;;;;15.00;7.30;;;;;;;11.26;33.46;98524.44;5084398;28;20052;-78
2022/03/14 09:27:15;;;;;;;14.48;7.85;;;;;;;11.38;32.75;98517.75;5072499;28;20102;-77
2022/03/14 09:29:42;;;;;;;14.20;7.80;;;;;;;11.76;32.81;98517.34;5069744;28;20456;-78
2022/03/14 09:32:09;;;;;;;15.70;7.93;;;;;;;11.80;33.20;98523.75;5069413;28;20052;-79
2022/03/14 09:34:37;;;;;;;14.45;7.28;;;;;;;12.11;32.72;98532.09;5071224;28;20102;-77
2022/03/14 09:37:04;;;;;;;15.75;7.78;;;;;;;11.93;32.79;98529.47;5070215;28;20052;-78
2022/03/14 09:39:32;;;;;;;14.30;7.85;;;;;;;12.13;33.26;98543.44;5080450;28;20048;-77
2022/03/14 09:42:04;;;;;;;13.88;7.90;;;;;;;12.09;33.00;98541.66;5095494;28;20109;-79
2022/03/14 09:44:30;;;;;;;15.27;7.70;;;;;;;12.95;32.69;98540.59;5101705;28;20048;-78
2022/03/14 09:47:01;;;;;;;16.08;8.15;;;;;;;13.12;32.48;98538.00;5093471;28;20048;-78
2022/03/14 09:49:31;;;;;;;17.63;8.68;;;;;;;12.43;32.64;98542.03;5076200;28;20056;-77
2022/03/14 09:51:59;;;;;;;13.50;7.90;;;;;;;12.06;33.08;98551.19;5070622;28;20053;-78
2022/03/14 09:54:25;;;;;;;14.85;7.72;;;;;;;11.86;33.16;98559.75;5073162;28;20070;-78
2022/03/14 09:57:00;;;;;;;15.48;8.10;;;;;;;11.73;32.72;98555.09;5069178;28;20052;-77
2022/03/14 09:59:28;;;;;;;18.88;8.52;;;;;;;11.56;34.50;98557.56;5067945;28;20052;-77
2022/03/14 10:01:54;;;;;;;15.77;8.00;;;;;;;11.16;33.84;98557.16;5074551;28;20535;-77
2022/03/14 10:04:22;;;;;;;19.90;8.30;;;;;;;11.02;34.89;98567.13;5070263;28;20600;-77
2022/03/14 10:06:49;;;;;;;17.30;8.73;;;;;;;10.80;34.99;98574.25;5069267;28;20053;-77
2022/03/14 10:09:16;;;;;;;16.42;8.57;;;;;;;10.84;34.73;98548.97;5069809;28;20705;-77
2022/03/14 10:11:43;;;;;;;15.88;8.15;;;;;;;10.81;35.02;98556.91;5068192;28;20048;-77
2022/03/14 10:14:11;;;;;;;19.00;8.27;;;;;;;11.01;35.49;98575.56;5073064;28;20044;-75
2022/03/14 10:16:38;;;;;;;16.58;7.90;;;;;;;10.63;35.74;98580.97;5083933;28;20052;-77
2022/03/14 10:19:09;;;;;;;16.67;8.25;;;;;;;10.78;36.14;98579.16;5090030;28;20087;-77
2022/03/14 10:21:37;;;;;;;22.60;9.07;;;;;;;10.83;36.04;98581.78;5082167;28;20168;-77
2022/03/14 10:24:12;;;;;;;20.55;8.38;;;;;;;11.08;36.40;98582.22;5081806;28;20067;-77
2022/03/14 10:26:43;;;;;;;18.38;9.05;;;;;;;11.09;36.27;98580.31;5093919;28;20052;-76
2022/03/14 10:29:12;;;;;;;22.25;8.52;;;;;;;11.21;35.39;98578.75;5087604;28;20047;-77
2022/03/14 10:31:57;;;;;;;20.88;9.20;;;;;;;11.46;36.02;98601.13;5078698;28;20048;-77
2022/03/14 10:34:24;;;;;;;17.83;8.70;;;;;;;11.45;36.42;98599.50;5086030;28;20222;-78
2022/03/14 10:36:53;;;;;;;17.98;9.00;;;;;;;11.19;37.26;98609.97;5091202;28;20121;-79
2022/03/14 10:39:32;;;;;;;17.73;9.23;;;;;;;10.96;36.56;98600.00;5091639;28;20052;-78
2022/03/14 10:42:03;;;;;;;21.63;9.10;;;;;;;10.99;37.06;98607.56;5084732;28;20048;-76
2022/03/14 10:44:48;;;;;;;21.35;8.95;;;;;;;10.86;37.03;98614.53;5070693;28;20052;-77
2022/03/14 10:47:15;;;;;;;17.38;8.98;;;;;;;11.00;36.89;98618.09;5072663;28;20072;-78
2022/03/14 10:49:44;;;;;;;19.55;9.65;;;;;;;11.11;37.44;98622.28;5069247;28;20049;-77
2022/03/14 10:52:17;;;;;;;18.13;9.02;;;;;;;11.22;36.98;98620.22;5069462;28;20055;-79
2022/03/14 10:54:44;;;;;;;26.60;10.50;;;;;;;11.17;37.37;98639.28;5071151;28;20048;-79
2022/03/14 10:57:13;;;;;;;17.83;9.63;;;;;;;11.39;37.69;98622.38;5069646;28;20110;-76
2022/03/14 10:59:43;;;;;;;17.50;9.32;;;;;;;11.72;37.33;98613.16;5070839;28;20482;-79
2022/03/14 11:02:12;;;;;;;18.08;9.80;;;;;;;12.03;37.86;98627.78;5069729;28;20111;-77
2022/03/14 11:04:43;;;;;;;19.77;10.40;;;;;;;11.88;39.03;98626.19;5070471;28;20524;-77
2022/03/14 11:07:10;;;;;;;20.02;10.38;;;;;;;12.13;39.69;98621.41;5070734;28;20049;-79
2022/03/14 11:09:40;;;;;;;18.17;9.75;;;;;;;12.85;39.40;98625.06;5070104;28;20048;-78
2022/03/14 11:12:09;;;;;;;17.80;10.00;;;;;;;12.37;41.11;98625.50;5071705;28;20052;-77
2022/03/14 11:14:36;;;;;;;21.17;10.82;;;;;;;11.88;41.82;98630.78;5066486;28;20090;-77